Time;durP1;ratioP1;P1;durP2;ratioP2;P2;SDS_P1;SDS_P2;PMS_P1;PMS_P2;Temp;Humidity;BMP_temperature;BMP_pressure;BME280_temperature;BME280_humidity;BME280_pressure;Samples;Min_cycle;Max_cycle;Signal;HPM_P1;HPM_P2
2021/12/24 00:02:25;;;;;;;108.07;35.10;;;5.50;99.90;;;;;;4889951;29;20130;-85
2021/12/24 00:04:51;;;;;;;104.60;35.60;;;5.60;99.90;;;;;;4904528;29;20039;-84
2021/12/24 00:07:17;;;;;;;108.77;36.10;;;5.60;99.90;;;;;;4917022;29;20039;-85
2021/12/24 00:09:43;;;;;;;97.73;34.07;;;5.60;99.90;;;;;;4894775;29;20142;-86
2021/12/24 00:12:15;;;;;;;90.90;33.50;;;5.60;99.90;;;;;;4891637;29;20039;-85
2021/12/24 00:14:46;;;;;;;95.20;33.97;;;5.60;99.90;;;;;;4916086;29;20079;-86
2021/12/24 00:17:15;;;;;;;96.18;35.28;;;5.70;99.90;;;;;;4941293;29;20052;-85
2021/12/24 00:19:58;;;;;;;107.10;34.57;;;5.70;99.90;;;;;;4904772;29;20428;-84
2021/12/24 00:35:50;;;;;;;93.23;31.37;;;5.80;99.90;;;;;;4913274;29;20044;-84
2021/12/24 00:38:16;;;;;;;89.63;33.60;;;5.90;99.90;;;;;;4932287;29;20119;-84
2021/12/24 00:40:45;;;;;;;89.17;32.40;;;5.90;99.90;;;;;;4919297;29;20123;-85
2021/12/24 00:43:13;;;;;;;85.33;31.80;;;5.90;99.90;;;;;;4916765;29;20043;-86
2021/12/24 00:45:42;;;;;;;82.07;29.90;;;5.90;99.90;;;;;;4930322;29;20463;-85
2021/12/24 00:48:11;;;;;;;74.67;27.50;;;5.90;99.90;;;;;;4904727;29;20083;-85
2021/12/24 00:50:53;;;;;;;71.93;28.27;;;6.00;99.90;;;;;;4887312;29;20044;-85
2021/12/24 00:56:08;;;;;;;79.93;28.47;;;6.00;99.90;;;;;;4915517;29;20082;-85
2021/12/24 00:58:34;;;;;;;67.67;26.43;;;6.00;99.90;;;;;;4935781;29;20444;-85
2021/12/24 01:01:00;;;;;;;67.23;25.43;;;6.10;99.90;;;;;;4937288;29;20138;-86
2021/12/24 01:03:26;;;;;;;76.63;27.07;;;6.10;99.90;;;;;;4915852;29;20126;-84
2021/12/24 01:05:52;;;;;;;59.03;24.07;;;6.10;99.90;;;;;;4888632;29;20044;-85
2021/12/24 01:08:18;;;;;;;74.63;26.67;;;6.20;99.90;;;;;;4913577;29;20819;-86
2021/12/24 01:10:49;;;;;;;59.03;22.57;;;6.20;99.90;;;;;;4910005;29;20075;-89
2021/12/24 01:13:15;;;;;;;47.37;21.87;;;6.20;99.90;;;;;;4920360;29;20126;-86
2021/12/24 01:15:53;;;;;;;50.33;20.83;;;6.20;99.90;;;;;;4906360;29;20082;-86
2021/12/24 01:20:59;;;;;;;45.30;19.50;;;6.30;99.90;;;;;;4942472;29;20044;-87
2021/12/24 01:26:10;;;;;;;43.13;18.87;;;6.30;99.90;;;;;;4902140;29;20507;-84
2021/12/24 01:29:39;;;;;;;44.27;17.70;;;6.30;99.90;;;;;;4925875;29;20044;-85
2021/12/24 01:44:49;;;;;;;35.43;15.27;;;6.40;99.90;;;;;;4899381;29;20044;-86
2021/12/24 01:47:16;;;;;;;31.20;14.57;;;6.40;99.90;;;;;;4891307;29;20531;-86
2021/12/24 01:49:41;;;;;;;25.57;13.63;;;6.50;99.90;;;;;;4925969;29;20047;-86
2021/12/24 01:52:08;;;;;;;30.80;13.07;;;6.50;99.90;;;;;;4921163;29;20043;-86
2021/12/24 01:54:34;;;;;;;30.03;13.63;;;6.50;99.90;;;;;;4922190;29;20053;-86
2021/12/24 01:57:00;;;;;;;25.80;13.40;;;6.50;99.90;;;;;;4924370;29;20487;-86
2021/12/24 01:59:26;;;;;;;25.03;12.53;;;6.50;99.90;;;;;;4889235;29;20040;-86
2021/12/24 02:01:52;;;;;;;26.50;13.13;;;6.60;99.90;;;;;;4925425;29;20432;-86
2021/12/24 02:04:21;;;;;;;26.10;12.43;;;6.60;99.90;;;;;;4903227;29;20044;-86
2021/12/24 02:06:47;;;;;;;23.57;11.67;;;6.60;99.90;;;;;;4925777;29;20484;-88
2021/12/24 02:09:13;;;;;;;24.10;11.87;;;6.60;99.90;;;;;;4916045;29;20455;-86
2021/12/24 02:11:40;;;;;;;21.10;12.23;;;6.60;99.90;;;;;;4930559;28;20363;-87
2021/12/24 02:14:09;;;;;;;23.83;12.03;;;6.70;99.90;;;;;;4916236;29;20040;-86
2021/12/24 02:28:21;;;;;;;18.63;10.30;;;6.80;99.90;;;;;;4936219;29;20049;-87
2021/12/24 02:30:48;;;;;;;22.90;12.17;;;6.80;99.90;;;;;;4922945;29;20147;-87
2021/12/24 02:33:14;;;;;;;24.53;12.17;;;6.80;99.90;;;;;;4925719;29;20483;-89
2021/12/24 02:35:40;;;;;;;24.63;12.30;;;6.80;99.90;;;;;;4889275;29;20040;-87
2021/12/24 02:38:07;;;;;;;22.03;11.80;;;6.90;99.90;;;;;;4928857;29;20456;-88
2021/12/24 02:40:33;;;;;;;23.47;12.20;;;6.90;99.90;;;;;;4902857;29;20392;-87
2021/12/24 02:42:59;;;;;;;25.00;12.40;;;6.90;99.90;;;;;;4934650;29;20048;-92
2021/12/24 02:45:28;;;;;;;20.43;11.03;;;6.90;99.90;;;;;;4914410;29;20047;-88
2021/12/24 02:55:31;;;;;;;19.23;10.43;;;6.90;99.90;;;;;;4944676;29;20058;-86
2021/12/24 02:57:57;;;;;;;21.57;10.90;;;7.00;99.90;;;;;;4934539;29;20403;-87
2021/12/24 03:00:26;;;;;;;23.50;11.40;;;7.00;99.90;;;;;;4927944;29;20048;-87
2021/12/24 03:02:53;;;;;;;20.57;10.57;;;7.00;99.90;;;;;;4920549;29;20047;-87
2021/12/24 03:05:21;;;;;;;18.90;9.70;;;7.00;99.90;;;;;;4920933;29;20103;-88
2021/12/24 03:07:47;;;;;;;19.20;9.80;;;7.10;99.90;;;;;;4943813;29;20062;-88
2021/12/24 03:10:17;;;;;;;16.83;9.47;;;7.10;99.90;;;;;;4951045;29;20055;-84
2021/12/24 03:12:44;;;;;;;18.43;9.43;;;7.10;99.90;;;;;;4910001;29;20476;-89
2021/12/24 03:15:12;;;;;;;20.67;10.33;;;7.10;99.90;;;;;;4891510;29;20119;-88
2021/12/24 03:17:39;;;;;;;16.50;8.90;;;7.20;99.90;;;;;;4933019;29;20919;-86
2021/12/24 03:20:09;;;;;;;18.13;9.60;;;7.20;99.90;;;;;;4917430;29;20051;-87
2021/12/24 03:25:08;;;;;;;18.43;10.33;;;7.30;99.90;;;;;;4928208;29;20134;-87
2021/12/24 03:27:33;;;;;;;17.17;9.40;;;7.30;99.90;;;;;;4924721;29;20126;-87
2021/12/24 03:29:59;;;;;;;14.13;8.93;;;7.30;99.90;;;;;;4951606;29;20555;-87
2021/12/24 03:32:25;;;;;;;19.73;10.17;;;7.30;99.90;;;;;;4942076;29;20046;-90
2021/12/24 03:34:52;;;;;;;20.83;11.10;;;7.40;99.90;;;;;;4901634;29;20119;-84
2021/12/24 03:37:18;;;;;;;26.83;11.90;;;7.40;99.90;;;;;;4912931;29;20467;-87
2021/12/24 03:39:44;;;;;;;26.83;11.43;;;7.40;99.90;;;;;;4909451;29;20115;-86
2021/12/24 03:42:09;;;;;;;30.30;12.13;;;7.50;99.90;;;;;;4914723;29;20047;-87
2021/12/24 03:44:42;;;;;;;31.07;12.27;;;7.50;99.90;;;;;;4894430;29;20046;-87
2021/12/24 03:47:17;;;;;;;;;;;7.60;99.90;;;;;;4917186;29;20043;-87
2021/12/24 03:55:00;;;;;;;52.53;16.57;;;7.70;99.90;;;;;;4942991;29;20544;-87
2021/12/24 03:57:33;;;;;;;47.27;18.27;;;7.80;99.90;;;;;;4919097;29;20043;-89
2021/12/24 04:00:08;;;;;;;54.27;18.60;;;7.90;99.90;;;;;;4915557;29;20039;-89
2021/12/24 04:02:34;;;;;;;60.27;19.70;;;7.90;99.90;;;;;;4947363;29;20380;-89
2021/12/24 04:05:00;;;;;;;60.10;20.93;;;7.90;99.90;;;;;;4914096;29;20047;-86
2021/12/24 04:07:26;;;;;;;69.53;21.93;;;8.00;99.90;;;;;;4925737;29;20036;-86
2021/12/24 04:10:10;;;;;;;71.37;22.30;;;8.10;99.90;;;;;;4911271;29;20039;-89
2021/12/24 04:12:36;;;;;;;68.90;21.83;;;8.10;99.90;;;;;;4903629;29;20043;-87
2021/12/24 04:15:03;;;;;;;69.40;22.50;;;8.10;99.90;;;;;;4880629;29;20046;-86
2021/12/24 04:17:34;;;;;;;71.80;22.50;;;8.10;99.90;;;;;;4893351;29;20040;-90
2021/12/24 04:25:30;;;;;;;64.47;21.30;;;8.20;99.90;;;;;;4945042;29;20054;-88
2021/12/24 04:27:59;;;;;;;50.13;18.53;;;8.10;99.90;;;;;;4911130;29;20276;-86
2021/12/24 04:30:31;;;;;;;47.87;17.27;;;8.20;99.90;;;;;;4915184;29;20387;-89
2021/12/24 04:33:07;;;;;;;51.17;18.57;;;8.20;99.90;;;;;;4912109;29;20071;-90
2021/12/24 04:35:41;;;;;;;54.60;19.43;;;8.20;99.90;;;;;;4913840;29;20413;-87
2021/12/24 04:51:33;;;;;;;57.57;21.93;;;8.30;99.90;;;;;;4942439;29;20228;-87
2021/12/24 05:02:27;;;;;;;63.60;24.37;;;8.30;99.90;;;;;;4944394;29;20039;-88
2021/12/24 05:05:09;;;;;;;63.83;24.63;;;8.40;99.90;;;;;;4934310;29;20114;-89
2021/12/24 05:10:07;;;;;;;;;;;8.40;99.90;;;;;;4919839;29;20432;-89
2021/12/24 05:12:34;;;;;;;62.83;24.70;;;8.40;99.90;;;;;;4925799;29;20270;-87
2021/12/24 05:15:02;;;;;;;67.20;23.83;;;8.40;99.90;;;;;;4909092;29;20048;-88
2021/12/24 05:17:35;;;;;;;64.57;26.30;;;8.30;99.90;;;;;;4919940;29;20050;-88
2021/12/24 05:22:47;;;;;;;61.07;22.80;;;8.40;99.90;;;;;;4946090;29;20046;-85
2021/12/24 05:25:12;;;;;;;52.53;22.97;;;8.40;99.90;;;;;;4941027;29;20043;-86
2021/12/24 05:27:38;;;;;;;55.93;23.07;;;8.30;99.90;;;;;;4923513;29;20032;-90
2021/12/24 05:30:16;;;;;;;47.60;21.40;;;8.40;99.90;;;;;;4894200;29;20143;-88
2021/12/24 05:32:42;;;;;;;52.90;22.13;;;8.40;99.90;;;;;;4936666;29;20043;-89
2021/12/24 05:35:08;;;;;;;46.07;21.33;;;8.40;99.90;;;;;;4913901;29;20040;-88
2021/12/24 05:37:34;;;;;;;51.03;21.97;;;8.40;99.90;;;;;;4901703;29;20039;-89
2021/12/24 05:40:00;;;;;;;48.50;20.93;;;8.50;99.90;;;;;;4919358;29;20046;-87
2021/12/24 05:42:27;;;;;;;48.37;21.63;;;8.50;99.90;;;;;;4912978;29;20047;-85
2021/12/24 05:44:57;;;;;;;54.43;22.30;;;8.40;99.90;;;;;;4919218;28;20062;-89
2021/12/24 05:47:22;;;;;;;50.90;22.83;;;8.40;99.90;;;;;;4917663;29;20195;-84
2021/12/24 05:49:48;;;;;;;43.00;19.83;;;8.50;99.90;;;;;;4906902;29;20554;-85
2021/12/24 05:52:14;;;;;;;45.77;21.40;;;8.50;99.90;;;;;;4920007;29;20054;-88
2021/12/24 05:54:40;;;;;;;51.37;21.13;;;8.40;99.90;;;;;;4916172;29;20032;-88
2021/12/24 05:57:06;;;;;;;51.73;20.10;;;8.50;99.90;;;;;;4928621;29;20050;-86
2021/12/24 05:59:32;;;;;;;52.37;22.57;;;8.50;99.90;;;;;;4942849;29;20044;-87
2021/12/24 06:01:57;;;;;;;48.03;20.53;;;8.50;99.90;;;;;;4907055;29;20062;-84
2021/12/24 06:04:23;;;;;;;43.83;20.73;;;8.50;99.90;;;;;;4925326;29;20054;-89
2021/12/24 06:06:49;;;;;;;50.30;22.53;;;8.50;99.90;;;;;;4938359;29;20043;-85
2021/12/24 06:09:15;;;;;;;48.77;20.57;;;8.50;99.90;;;;;;4953285;29;20126;-86
2021/12/24 06:11:41;;;;;;;45.63;21.67;;;8.50;99.90;;;;;;4948631;29;20058;-85
2021/12/24 06:14:11;;;;;;;41.37;19.20;;;8.50;99.90;;;;;;4922393;29;20044;-84
2021/12/24 06:16:46;;;;;;;48.40;20.67;;;8.60;99.90;;;;;;4922324;29;20388;-83
2021/12/24 06:19:12;;;;;;;41.83;20.20;;;8.50;99.90;;;;;;4953487;29;20059;-84
2021/12/24 06:21:37;;;;;;;45.93;19.30;;;8.50;99.90;;;;;;4920845;29;20076;-85
2021/12/24 06:24:03;;;;;;;46.30;17.97;;;8.60;99.90;;;;;;4907887;29;20047;-87
2021/12/24 06:26:29;;;;;;;42.93;18.93;;;8.50;99.90;;;;;;4919407;29;20048;-86
2021/12/24 06:28:55;;;;;;;44.23;18.70;;;8.50;99.90;;;;;;4888491;29;20122;-86
2021/12/24 06:31:20;;;;;;;47.43;18.13;;;8.50;99.90;;;;;;4920099;29;20450;-85
2021/12/24 06:33:46;;;;;;;32.50;14.90;;;8.50;99.90;;;;;;4912310;29;20039;-84
2021/12/24 06:36:12;;;;;;;35.83;16.30;;;8.50;99.90;;;;;;4902092;29;20042;-84
2021/12/24 06:38:38;;;;;;;38.73;15.87;;;8.50;99.90;;;;;;4929652;29;20047;-83
2021/12/24 06:41:04;;;;;;;42.10;15.40;;;8.50;99.90;;;;;;4941944;29;20130;-86
2021/12/24 06:43:29;;;;;;;34.70;15.57;;;8.50;99.90;;;;;;4902333;29;20505;-87
2021/12/24 06:45:57;;;;;;;42.13;16.87;;;8.50;99.90;;;;;;4891056;29;20066;-86
2021/12/24 06:48:23;;;;;;;38.70;15.80;;;8.40;99.90;;;;;;4924037;29;20100;-85
2021/12/24 06:50:50;;;;;;;32.07;14.57;;;8.40;99.90;;;;;;4908316;29;20044;-85
2021/12/24 06:53:16;;;;;;;31.40;13.53;;;8.40;99.90;;;;;;4919411;29;20043;-86
2021/12/24 06:55:41;;;;;;;32.17;14.07;;;8.40;99.90;;;;;;4912956;29;20492;-86
2021/12/24 06:58:08;;;;;;;36.80;14.67;;;8.50;99.90;;;;;;4894798;29;20502;-85
2021/12/24 07:00:34;;;;;;;32.60;14.03;;;8.40;99.90;;;;;;4928284;29;20032;-85
2021/12/24 07:03:00;;;;;;;32.33;13.77;;;8.50;99.90;;;;;;4935002;29;20047;-83
2021/12/24 07:05:26;;;;;;;28.20;13.27;;;8.40;99.90;;;;;;4914770;29;20047;-88
2021/12/24 07:07:52;;;;;;;35.73;14.00;;;8.50;99.90;;;;;;4942079;29;20040;-88
2021/12/24 07:10:18;;;;;;;31.47;12.83;;;8.50;99.90;;;;;;4905121;29;20395;-84
2021/12/24 07:12:44;;;;;;;33.70;13.60;;;8.40;99.90;;;;;;4885674;29;20131;-84
2021/12/24 07:15:10;;;;;;;36.17;13.60;;;8.40;99.90;;;;;;4915792;29;20523;-85
2021/12/24 07:17:36;;;;;;;28.87;12.87;;;8.40;99.90;;;;;;4907093;29;20032;-86
2021/12/24 07:20:03;;;;;;;35.47;12.43;;;8.40;99.90;;;;;;4900008;29;20044;-84
2021/12/24 07:22:29;;;;;;;34.63;12.73;;;8.40;99.90;;;;;;4910951;29;20496;-84
2021/12/24 07:24:54;;;;;;;29.50;12.77;;;8.40;99.90;;;;;;4909073;29;20040;-84
2021/12/24 07:27:20;;;;;;;28.37;12.20;;;8.40;99.90;;;;;;4918504;29;20046;-86
2021/12/24 07:29:46;;;;;;;34.67;13.63;;;8.30;99.90;;;;;;4906968;29;20044;-86
2021/12/24 07:32:12;;;;;;;30.73;12.40;;;8.40;99.90;;;;;;4910334;29;20527;-85
2021/12/24 07:34:38;;;;;;;29.77;12.70;;;8.40;99.90;;;;;;4901798;29;20092;-84
2021/12/24 07:37:04;;;;;;;28.60;11.57;;;8.30;99.90;;;;;;4882156;29;20039;-84
2021/12/24 07:39:30;;;;;;;30.13;11.67;;;8.30;99.90;;;;;;4951594;29;20440;-85
2021/12/24 07:41:55;;;;;;;26.93;13.03;;;8.30;99.90;;;;;;4936496;29;20036;-86
2021/12/24 07:44:21;;;;;;;30.40;11.17;;;8.30;99.90;;;;;;4920893;29;20129;-85
2021/12/24 07:46:52;;;;;;;29.00;11.20;;;8.30;99.90;;;;;;4921100;29;20043;-84
2021/12/24 07:49:30;;;;;;;23.00;10.80;;;8.30;99.90;;;;;;4936373;29;20044;-84
2021/12/24 07:54:33;;;;;;;26.80;11.23;;;8.30;99.90;;;;;;4911918;29;20052;-86
2021/12/24 07:56:59;;;;;;;30.73;11.53;;;8.30;99.90;;;;;;4931125;29;20098;-84
2021/12/24 07:59:26;;;;;;;25.97;12.93;;;8.30;99.90;;;;;;4919504;29;20044;-86
2021/12/24 08:01:56;;;;;;;31.27;11.77;;;8.30;99.90;;;;;;4904408;29;20435;-84
2021/12/24 08:04:22;;;;;;;26.03;11.30;;;8.30;99.90;;;;;;4936247;29;20083;-84
2021/12/24 08:06:48;;;;;;;29.00;11.33;;;8.30;99.90;;;;;;4936193;29;20562;-84
2021/12/24 08:09:14;;;;;;;31.47;10.53;;;8.30;99.90;;;;;;4935174;29;20083;-84
2021/12/24 08:11:43;;;;;;;28.30;10.97;;;8.30;99.90;;;;;;4911793;29;20067;-87
2021/12/24 08:14:09;;;;;;;28.07;10.67;;;8.20;99.90;;;;;;4931214;29;20132;-85
2021/12/24 08:16:35;;;;;;;32.03;10.73;;;8.30;99.90;;;;;;4884288;29;20131;-84
2021/12/24 08:19:02;;;;;;;26.60;10.27;;;8.30;99.90;;;;;;4917141;29;20060;-84
2021/12/24 08:21:28;;;;;;;26.70;10.73;;;8.20;99.90;;;;;;4901374;29;20047;-85
2021/12/24 08:23:54;;;;;;;24.83;10.10;;;8.20;99.90;;;;;;4887987;29;20051;-87
2021/12/24 08:26:23;;;;;;;31.03;10.83;;;8.20;99.90;;;;;;4913863;29;20044;-86
2021/12/24 08:28:50;;;;;;;25.93;9.47;;;8.20;99.90;;;;;;4907185;29;20107;-84
2021/12/24 08:31:17;;;;;;;25.13;8.97;;;8.30;99.90;;;;;;4897439;29;20479;-84
2021/12/24 08:33:42;;;;;;;24.63;8.70;;;8.20;99.90;;;;;;4913804;29;20051;-82
2021/12/24 08:36:09;;;;;;;24.03;8.70;;;8.20;99.90;;;;;;4911242;29;20032;-86
2021/12/24 08:38:35;;;;;;;22.43;9.10;;;8.20;99.90;;;;;;4915092;29;20555;-84
2021/12/24 08:41:02;;;;;;;22.47;9.23;;;8.20;99.90;;;;;;4915630;29;20126;-83
2021/12/24 08:43:27;;;;;;;21.37;8.70;;;8.20;99.90;;;;;;4922501;29;20043;-83
2021/12/24 08:45:53;;;;;;;22.67;8.90;;;8.30;99.90;;;;;;4898842;29;20123;-83
2021/12/24 08:48:19;;;;;;;22.37;8.37;;;8.20;99.90;;;;;;4916282;29;20047;-85
2021/12/24 08:50:45;;;;;;;22.53;9.43;;;8.30;99.90;;;;;;4917748;29;20040;-83
2021/12/24 08:53:12;;;;;;;22.27;9.83;;;8.20;99.90;;;;;;4899228;29;20047;-85
2021/12/24 08:55:39;;;;;;;27.23;9.73;;;8.30;99.90;;;;;;4940616;29;20601;-84
2021/12/24 08:58:05;;;;;;;26.57;10.57;;;8.30;99.90;;;;;;4900729;29;20052;-84
2021/12/24 09:00:32;;;;;;;32.13;9.87;;;8.30;99.90;;;;;;4941794;29;20047;-84
2021/12/24 09:02:58;;;;;;;27.07;9.30;;;8.30;99.90;;;;;;4936052;29;20056;-84
2021/12/24 09:05:24;;;;;;;23.17;10.27;;;8.30;99.90;;;;;;4898927;29;20515;-84
2021/12/24 09:07:50;;;;;;;26.73;9.37;;;8.30;99.90;;;;;;4939599;29;20164;-84
2021/12/24 09:10:17;;;;;;;25.27;9.67;;;8.30;99.90;;;;;;4913476;29;20097;-84
2021/12/24 09:12:43;;;;;;;23.90;8.93;;;8.30;99.90;;;;;;4914045;29;20036;-85
2021/12/24 09:15:11;;;;;;;20.90;8.87;;;8.30;99.90;;;;;;4922930;29;20102;-84
2021/12/24 09:17:43;;;;;;;24.20;9.70;;;8.30;99.90;;;;;;4919828;29;20044;-87
2021/12/24 09:20:12;;;;;;;28.42;9.18;;;8.30;99.90;;;;;;4920193;29;20452;-85
2021/12/24 09:22:39;;;;;;;23.33;9.00;;;8.30;99.90;;;;;;4921574;29;20123;-85
2021/12/24 09:25:06;;;;;;;23.30;8.37;;;8.30;99.90;;;;;;4913807;29;20099;-84
2021/12/24 09:27:32;;;;;;;24.43;9.50;;;8.30;99.90;;;;;;4948464;29;20233;-83
2021/12/24 09:29:58;;;;;;;26.70;9.13;;;8.30;99.90;;;;;;4929833;29;20690;-88
2021/12/24 09:32:25;;;;;;;28.70;9.73;;;8.30;99.90;;;;;;4920271;29;20385;-83
2021/12/24 09:34:51;;;;;;;18.10;8.17;;;8.30;99.90;;;;;;4933830;29;20119;-85
2021/12/24 09:37:17;;;;;;;20.20;8.40;;;8.30;99.90;;;;;;4918593;29;20044;-83
2021/12/24 09:39:43;;;;;;;24.47;9.30;;;8.30;99.90;;;;;;4900803;29;20071;-83
2021/12/24 09:42:09;;;;;;;24.80;8.40;;;8.30;99.90;;;;;;4916214;29;20091;-83
2021/12/24 09:44:35;;;;;;;22.53;8.10;;;8.30;99.90;;;;;;4903296;29;20075;-84
2021/12/24 09:47:01;;;;;;;28.70;9.10;;;8.30;99.90;;;;;;4935057;29;20082;-83
2021/12/24 09:49:27;;;;;;;27.33;9.70;;;8.30;99.90;;;;;;4900167;29;20604;-84
2021/12/24 09:51:53;;;;;;;25.10;9.03;;;8.20;99.90;;;;;;4917738;29;20036;-84
2021/12/24 09:54:23;;;;;;;26.87;8.93;;;8.30;99.90;;;;;;4898105;29;20043;-84
2021/12/24 09:56:50;;;;;;;23.80;8.63;;;8.30;99.90;;;;;;4941810;29;20039;-83
2021/12/24 09:59:16;;;;;;;21.97;9.00;;;8.30;99.90;;;;;;4918204;29;20036;-84
2021/12/24 10:01:54;;;;;;;26.70;9.53;;;8.30;99.90;;;;;;4915652;29;20079;-83
2021/12/24 10:04:23;;;;;;;37.60;8.50;;;8.30;99.90;;;;;;4932587;29;20075;-84
2021/12/24 10:07:10;;;;;;;24.90;8.10;;;8.30;99.90;;;;;;4911075;29;20055;-85
2021/12/24 10:09:42;;;;;;;29.73;8.97;;;8.30;99.90;;;;;;4917802;29;20055;-86
2021/12/24 10:12:14;;;;;;;24.67;9.27;;;8.30;99.90;;;;;;4946669;29;20043;-84
2021/12/24 10:14:46;;;;;;;25.90;9.00;;;8.40;99.90;;;;;;4925234;29;20043;-84
2021/12/24 10:17:18;;;;;;;35.47;9.60;;;8.40;99.90;;;;;;4933651;29;20051;-84
2021/12/24 10:19:53;;;;;;;20.17;8.10;;;8.40;99.90;;;;;;4917459;29;20193;-83
2021/12/24 10:22:20;;;;;;;25.67;8.53;;;8.40;99.90;;;;;;4949912;29;20447;-83
2021/12/24 10:25:01;;;;;;;24.87;8.73;;;8.40;99.90;;;;;;4932552;29;20036;-84
2021/12/24 10:27:29;;;;;;;29.00;8.10;;;8.40;99.90;;;;;;4933560;29;20401;-83
2021/12/24 10:29:54;;;;;;;20.77;8.07;;;8.40;99.90;;;;;;4910920;29;20059;-84
2021/12/24 10:32:20;;;;;;;18.13;6.73;;;8.40;99.90;;;;;;4919567;29;20047;-85
2021/12/24 10:34:46;;;;;;;14.03;6.03;;;8.40;99.90;;;;;;4921614;29;20046;-83
2021/12/24 10:37:12;;;;;;;15.90;5.83;;;8.40;99.90;;;;;;4934567;29;20407;-84
2021/12/24 10:39:42;;;;;;;13.27;6.07;;;8.40;99.90;;;;;;4903387;29;20044;-85
2021/12/24 10:42:13;;;;;;;10.50;4.53;;;8.40;99.90;;;;;;4937582;29;20043;-84
2021/12/24 10:44:40;;;;;;;16.13;4.87;;;8.40;99.90;;;;;;4921103;29;20079;-84
2021/12/24 10:47:12;;;;;;;9.83;4.20;;;8.40;99.90;;;;;;4954275;29;20503;-82
2021/12/24 10:53:13;;;;;;;2.37;2.03;;;8.10;99.90;;;;;;4931590;29;20044;-86
2021/12/24 10:55:00;;;;;;;3.00;2.70;;;7.60;99.90;;;;;;4920550;29;20047;-85
2021/12/24 10:57:38;;;;;;;3.90;2.90;;;7.40;99.90;;;;;;4929287;29;20400;-84
2021/12/24 11:00:14;;;;;;;4.60;3.70;;;7.20;99.90;;;;;;4931008;29;20075;-84
2021/12/24 11:02:42;;;;;;;5.00;3.80;;;7.00;99.90;;;;;;4921057;29;20047;-84
2021/12/24 11:05:41;;;;;;;5.20;4.53;;;6.90;99.90;;;;;;4921790;29;20515;-84
2021/12/24 11:08:10;;;;;;;6.33;4.63;;;6.80;99.90;;;;;;4918295;29;20440;-84
2021/12/24 11:10:40;;;;;;;6.30;3.80;;;6.70;99.90;;;;;;4920121;29;20044;-83
2021/12/24 11:13:12;;;;;;;5.93;4.30;;;6.70;99.90;;;;;;4937313;29;20047;-85
2021/12/24 11:15:44;;;;;;;5.07;3.77;;;6.70;99.90;;;;;;4921704;29;20048;-84
2021/12/24 11:18:22;;;;;;;3.35;2.63;;;6.60;99.90;;;;;;4959600;29;20055;-80
2021/12/24 11:21:03;;;;;;;3.87;2.70;;;6.50;99.90;;;;;;4928483;29;20045;-84
2021/12/24 11:23:31;;;;;;;3.30;2.97;;;6.50;99.90;;;;;;4940507;29;20039;-83
2021/12/24 11:26:18;;;;;;;3.77;2.70;;;6.40;99.90;;;;;;4924661;29;20046;-84
2021/12/24 11:28:45;;;;;;;3.27;2.70;;;6.40;99.90;;;;;;4935901;29;20047;-83
2021/12/24 11:31:17;;;;;;;3.80;2.80;;;6.30;99.90;;;;;;4924727;29;20071;-85
2021/12/24 11:33:44;;;;;;;3.83;3.00;;;6.30;99.90;;;;;;4937354;29;20490;-83
2021/12/24 11:36:14;;;;;;;4.40;3.20;;;6.30;99.90;;;;;;4921639;29;20046;-84
2021/12/24 11:38:49;;;;;;;5.43;3.70;;;6.30;99.90;;;;;;4956206;29;20039;-84
2021/12/24 11:41:18;;;;;;;4.73;3.13;;;6.30;99.90;;;;;;4919268;29;20075;-84
2021/12/24 11:43:46;;;;;;;5.20;3.83;;;6.30;99.90;;;;;;4942459;29;20047;-84
2021/12/24 11:46:15;;;;;;;5.30;3.90;;;6.30;99.90;;;;;;4942998;29;20058;-84
2021/12/24 11:48:42;;;;;;;5.03;4.00;;;6.20;99.90;;;;;;4934563;29;20044;-86
2021/12/24 11:51:13;;;;;;;6.27;4.13;;;6.30;99.90;;;;;;4917461;29;20074;-84
2021/12/24 11:53:39;;;;;;;4.70;3.73;;;6.30;99.90;;;;;;4915453;29;20048;-84
2021/12/24 11:56:08;;;;;;;5.27;4.00;;;6.30;99.90;;;;;;4950837;29;20062;-83
2021/12/24 11:58:50;;;;;;;6.33;4.10;;;6.30;99.90;;;;;;4930273;29;20043;-84
2021/12/24 12:01:18;;;;;;;4.60;3.80;;;6.30;99.90;;;;;;4935426;29;20134;-84
2021/12/24 12:03:49;;;;;;;4.43;3.60;;;6.30;99.90;;;;;;4920120;29;20439;-84
2021/12/24 12:06:20;;;;;;;5.23;3.50;;;6.30;99.90;;;;;;4910895;29;20083;-84
2021/12/24 12:08:48;;;;;;;4.57;3.80;;;6.30;99.90;;;;;;4948203;29;20039;-84
2021/12/24 12:11:14;;;;;;;5.07;3.73;;;6.30;99.90;;;;;;4922498;29;20039;-84
2021/12/24 12:13:52;;;;;;;6.43;4.07;;;6.30;99.90;;;;;;4925460;29;20086;-84
2021/12/24 12:16:39;;;;;;;5.77;4.00;;;6.20;99.90;;;;;;4927825;29;20395;-83
2021/12/24 12:25:09;;;;;;;5.13;4.25;;;6.30;99.90;;;;;;4952408;29;20419;-83
2021/12/24 12:27:55;;;;;;;5.33;3.83;;;6.30;99.90;;;;;;4934046;29;20399;-83
2021/12/24 12:30:29;;;;;;;5.77;4.30;;;6.20;99.90;;;;;;4944471;29;20051;-82
2021/12/24 12:33:07;;;;;;;4.73;3.50;;;6.20;99.90;;;;;;4945116;29;20046;-84
2021/12/24 12:35:37;;;;;;;6.90;3.73;;;6.20;99.90;;;;;;4913310;29;20174;-84
2021/12/24 12:38:21;;;;;;;6.27;4.07;;;6.20;99.90;;;;;;4940091;29;20124;-84
2021/12/24 12:40:47;;;;;;;4.90;3.90;;;6.20;99.90;;;;;;4923167;29;20038;-84
2021/12/24 12:43:14;;;;;;;4.67;3.43;;;6.20;99.90;;;;;;4907251;29;20043;-84
2021/12/24 12:45:41;;;;;;;7.27;4.27;;;6.20;99.90;;;;;;4912151;29;20571;-84
2021/12/24 12:48:12;;;;;;;6.77;4.50;;;6.20;99.90;;;;;;4938447;29;20043;-84
2021/12/24 12:50:49;;;;;;;5.17;3.87;;;6.20;99.90;;;;;;4923211;29;20043;-83
2021/12/24 12:53:30;;;;;;;6.00;4.83;;;6.20;99.90;;;;;;4943522;29;20306;-83
2021/12/24 12:56:17;;;;;;;7.43;4.47;;;6.20;99.90;;;;;;4931071;29;20046;-83
2021/12/24 12:58:46;;;;;;;5.80;4.40;;;6.20;99.90;;;;;;4904043;29;20514;-83
2021/12/24 13:01:18;;;;;;;7.33;4.97;;;6.20;99.90;;;;;;4906377;29;20052;-85
2021/12/24 13:03:55;;;;;;;7.32;4.90;;;6.20;99.90;;;;;;4922665;29;20082;-83
2021/12/24 13:06:46;;;;;;;6.63;4.90;;;6.30;99.90;;;;;;4936180;29;20043;-83
2021/12/24 13:09:13;;;;;;;5.87;4.37;;;6.20;99.90;;;;;;4919192;29;20046;-83
2021/12/24 13:11:45;;;;;;;7.20;3.90;;;6.30;99.90;;;;;;4919651;29;20050;-84
2021/12/24 13:14:12;;;;;;;6.53;4.50;;;6.30;99.90;;;;;;4911401;29;20411;-84
2021/12/24 13:16:47;;;;;;;5.40;4.43;;;6.30;99.90;;;;;;4922090;29;20043;-84
2021/12/24 13:19:32;;;;;;;4.20;3.53;;;6.40;99.90;;;;;;4916965;29;20047;-83
2021/12/24 13:25:00;;;;;;;4.67;3.67;;;6.40;99.90;;;;;;4936271;29;20522;-84
2021/12/24 13:27:30;;;;;;;4.47;3.40;;;6.40;99.90;;;;;;4906684;29;20040;-84
2021/12/24 13:30:11;;;;;;;5.40;3.33;;;6.30;99.90;;;;;;4915667;29;20053;-84
2021/12/24 13:32:55;;;;;;;5.80;3.90;;;6.30;99.90;;;;;;4911843;29;20040;-84
2021/12/24 13:35:24;;;;;;;4.30;3.50;;;6.40;99.90;;;;;;4931853;29;20048;-84
2021/12/24 13:37:52;;;;;;;3.67;3.20;;;6.30;99.90;;;;;;4917992;29;20103;-84
2021/12/24 13:40:20;;;;;;;3.80;2.90;;;6.30;99.90;;;;;;4947266;29;20039;-84
2021/12/24 13:42:52;;;;;;;3.50;2.70;;;6.30;99.90;;;;;;4930804;29;20040;-84
2021/12/24 13:45:19;;;;;;;2.90;2.60;;;6.40;99.90;;;;;;4925770;29;20083;-84
2021/12/24 13:47:58;;;;;;;4.07;2.90;;;6.40;99.90;;;;;;4894471;29;20079;-84
2021/12/24 13:55:40;;;;;;;3.87;2.90;;;6.50;99.90;;;;;;4931804;29;20436;-84
2021/12/24 13:58:09;;;;;;;4.33;3.00;;;6.50;99.90;;;;;;4948621;29;20495;-84
2021/12/24 14:00:39;;;;;;;3.13;2.70;;;6.50;99.90;;;;;;4917791;29;20507;-84
2021/12/24 14:03:08;;;;;;;3.57;2.80;;;6.50;99.90;;;;;;4949018;29;20048;-82
2021/12/24 14:05:44;;;;;;;4.13;2.80;;;6.50;99.90;;;;;;4956859;29;20043;-84
2021/12/24 14:08:13;;;;;;;3.60;2.93;;;6.60;99.90;;;;;;4917075;29;20059;-84
2021/12/24 14:10:40;;;;;;;4.07;2.97;;;6.50;99.90;;;;;;4922468;29;20059;-84
2021/12/24 14:13:18;;;;;;;3.93;2.87;;;6.50;99.90;;;;;;4897310;29;20044;-84
2021/12/24 14:16:03;;;;;;;3.37;2.90;;;6.50;99.90;;;;;;4918118;29;20043;-84
2021/12/24 14:23:31;;;;;;;4.17;3.10;;;6.50;99.90;;;;;;4945483;29;20055;-84
2021/12/24 14:25:59;;;;;;;3.90;2.90;;;6.50;99.90;;;;;;4923718;29;20040;-84
2021/12/24 14:28:25;;;;;;;3.73;2.83;;;6.50;99.90;;;;;;4916735;29;20119;-84
2021/12/24 14:31:01;;;;;;;4.37;3.20;;;6.50;99.90;;;;;;4936639;29;20457;-85
2021/12/24 14:33:36;;;;;;;3.27;2.97;;;6.50;99.90;;;;;;4917350;29;20042;-84
2021/12/24 14:36:03;;;;;;;4.57;3.37;;;6.50;99.90;;;;;;4942369;29;20467;-84
2021/12/24 14:38:29;;;;;;;4.10;3.63;;;6.50;99.90;;;;;;4895994;29;20054;-84
2021/12/24 14:40:58;;;;;;;4.03;3.33;;;6.50;99.90;;;;;;4922003;29;20395;-84
2021/12/24 14:43:24;;;;;;;6.50;3.40;;;6.40;99.90;;;;;;4931862;29;20083;-85
2021/12/24 14:45:50;;;;;;;5.90;3.80;;;6.40;99.90;;;;;;4953931;29;20097;-85
2021/12/24 14:48:25;;;;;;;5.70;3.80;;;6.40;99.90;;;;;;4921709;29;20131;-85
2021/12/24 14:51:06;;;;;;;4.57;3.77;;;6.40;99.90;;;;;;4953361;29;20075;-85
2021/12/24 14:53:36;;;;;;;5.60;4.00;;;6.30;99.90;;;;;;4920939;29;20090;-85
2021/12/24 14:56:04;;;;;;;4.60;3.70;;;6.40;99.90;;;;;;4923174;29;20039;-85